Time;durP1;ratioP1;P1;durP2;ratioP2;P2;SDS_P1;SDS_P2;PMS_P1;PMS_P2;Temp;Humidity;BMP_temperature;BMP_pressure;BME280_temperature;BME280_humidity;BME280_pressure;Samples;Min_cycle;Max_cycle;Signal;HPM_P1;HPM_P2
2021/10/31 00:01:23;;;;;;;55.72;27.17;;;;;;;9.06;100.00;100505.16;5063865;28;20032;-65
2021/10/31 00:03:48;;;;;;;54.35;26.45;;;;;;;9.00;100.00;100507.78;5062022;28;20025;-66
2021/10/31 00:06:13;;;;;;;50.88;25.35;;;;;;;9.05;100.00;100510.44;5061867;28;20108;-65
2021/10/31 00:08:39;;;;;;;53.70;25.98;;;;;;;9.02;100.00;100516.56;5064610;28;20024;-68
2021/10/31 00:11:06;;;;;;;54.90;27.15;;;;;;;8.97;100.00;100512.13;5062379;28;20071;-66
2021/10/31 00:13:32;;;;;;;53.00;26.40;;;;;;;8.97;100.00;100512.13;5063754;28;20517;-67
2021/10/31 00:15:57;;;;;;;55.40;26.20;;;;;;;8.92;100.00;100514.75;5063322;28;20024;-65
2021/10/31 00:18:23;;;;;;;53.90;25.45;;;;;;;8.95;100.00;100524.44;5061718;28;20072;-66
2021/10/31 00:20:48;;;;;;;52.67;26.25;;;;;;;8.90;100.00;100516.50;5064605;28;20025;-66
2021/10/31 00:23:14;;;;;;;54.78;25.58;;;;;;;8.85;100.00;100512.94;5061401;28;20021;-68
2021/10/31 00:25:39;;;;;;;56.08;25.42;;;;;;;8.81;100.00;100517.34;5064470;28;20077;-67
2021/10/31 00:28:05;;;;;;;50.83;24.75;;;;;;;8.81;100.00;100514.69;5062248;28;20071;-70
2021/10/31 00:30:30;;;;;;;52.00;24.60;;;;;;;8.75;100.00;100519.91;5063232;28;20017;-70
2021/10/31 00:32:56;;;;;;;53.67;25.13;;;;;;;8.75;100.00;100521.66;5062059;28;20093;-68
2021/10/31 00:35:22;;;;;;;50.80;24.25;;;;;;;8.72;100.00;100517.25;5062135;28;20052;-70
2021/10/31 00:37:47;;;;;;;53.33;24.75;;;;;;;8.72;100.00;100522.53;5064340;28;20073;-70
2021/10/31 00:40:13;;;;;;;49.50;24.33;;;;;;;8.68;100.00;100524.28;5061688;28;20523;-70
2021/10/31 00:42:40;;;;;;;47.35;23.20;;;;;;;8.67;100.00;100525.13;5063010;28;20020;-70
2021/10/31 00:45:06;;;;;;;49.97;23.80;;;;;;;8.63;100.00;100523.34;5061793;28;20025;-70
2021/10/31 00:47:32;;;;;;;47.75;22.65;;;;;;;8.58;100.00;100521.53;5063581;28;20033;-70
2021/10/31 00:49:58;;;;;;;44.28;21.95;;;;;;;8.57;100.00;100520.66;5063125;28;20055;-70
2021/10/31 00:52:24;;;;;;;46.90;22.15;;;;;;;8.59;100.00;100528.59;5061814;28;20028;-70
2021/10/31 00:54:49;;;;;;;49.95;22.20;;;;;;;8.55;100.00;100528.56;5064435;28;20386;-70
2021/10/31 00:57:15;;;;;;;45.42;21.90;;;;;;;8.57;100.00;100528.56;5061191;28;20021;-70
2021/10/31 00:59:40;;;;;;;51.35;22.55;;;;;;;8.54;100.00;100524.16;5064446;28;20075;-70
2021/10/31 01:02:10;;;;;;;48.92;23.05;;;;;;;8.50;100.00;100511.84;5061940;28;20036;-70
2021/10/31 01:04:36;;;;;;;51.13;23.15;;;;;;;8.48;100.00;100523.25;5063841;28;20036;-71
2021/10/31 01:07:42;;;;;;;48.17;22.98;;;;;;;8.45;100.00;100521.47;5062337;28;20031;-65
2021/10/31 01:10:27;;;;;;;47.53;22.17;;;;;;;8.47;100.00;100532.00;5063820;28;20037;-65
2021/10/31 01:13:21;;;;;;;46.22;23.88;;;;;;;8.45;100.00;100529.38;5061874;28;20025;-66
2021/10/31 01:16:03;;;;;;;48.58;23.95;;;;;;;8.40;100.00;100536.31;5060864;28;20104;-65
2021/10/31 01:18:56;;;;;;;51.85;23.98;;;;;;;8.42;100.00;100544.22;5062332;28;20045;-66
2021/10/31 01:21:29;;;;;;;50.08;24.80;;;;;;;8.44;100.00;100540.75;5061840;28;20430;-65
2021/10/31 01:24:24;;;;;;;51.05;24.95;;;;;;;8.40;100.00;100535.44;5062849;28;20031;-67
2021/10/31 01:27:11;;;;;;;53.03;26.35;;;;;;;8.38;100.00;100538.94;5061486;28;20422;-65
2021/10/31 01:29:58;;;;;;;51.42;26.25;;;;;;;8.38;100.00;100543.31;5062422;28;20028;-65
2021/10/31 01:32:48;;;;;;;54.13;26.38;;;;;;;8.37;100.00;100545.09;5065708;28;20082;-65
2021/10/31 01:35:42;;;;;;;55.03;25.65;;;;;;;8.34;100.00;100533.63;5065053;28;20033;-65
2021/10/31 01:38:33;;;;;;;50.67;26.15;;;;;;;8.40;100.00;100548.59;5067514;28;20032;-67
2021/10/31 01:41:32;;;;;;;53.10;26.83;;;;;;;8.36;100.00;100545.06;5066147;28;20060;-67
2021/10/31 01:44:07;;;;;;;55.65;27.23;;;;;;;8.30;100.00;100543.25;5065979;28;20123;-66
2021/10/31 01:46:42;;;;;;;60.90;27.65;;;;;;;8.30;100.00;100545.91;5065665;28;20390;-67
2021/10/31 01:49:24;;;;;;;55.83;27.83;;;;;;;8.30;100.00;100547.63;5066809;28;20032;-67
2021/10/31 01:51:54;;;;;;;57.88;28.95;;;;;;;8.22;100.00;100541.44;5065050;28;20029;-66
2021/10/31 01:54:25;;;;;;;57.33;29.00;;;;;;;8.15;100.00;100538.72;5067563;28;20055;-66
2021/10/31 01:56:55;;;;;;;57.60;30.15;;;;;;;8.17;100.00;100541.41;5064798;28;20029;-65
2021/10/31 01:59:27;;;;;;;60.45;30.33;;;;;;;8.13;100.00;100552.75;5066786;28;20024;-66
2021/10/31 02:01:55;;;;;;;63.40;31.35;;;;;;;8.07;100.00;100547.41;5064680;28;20057;-66
2021/10/31 02:04:23;;;;;;;63.55;31.23;;;;;;;8.04;100.00;100545.66;5067191;28;20425;-65
2021/10/31 02:06:51;;;;;;;60.78;31.08;;;;;;;7.97;100.00;100552.59;5064277;28;20025;-65
2021/10/31 02:09:19;;;;;;;64.35;30.52;;;;;;;7.97;100.00;100551.72;5067521;28;20067;-65
2021/10/31 02:11:46;;;;;;;70.80;33.17;;;;;;;7.94;100.00;100555.19;5064124;28;20068;-66
2021/10/31 02:14:13;;;;;;;66.05;33.53;;;;;;;7.96;100.00;100548.19;5063922;28;20021;-65
2021/10/31 02:16:40;;;;;;;69.88;33.58;;;;;;;7.94;100.00;100551.69;5066720;28;20028;-65
2021/10/31 02:19:09;;;;;;;68.43;34.55;;;;;;;7.91;100.00;100551.66;5064698;28;20512;-65
2021/10/31 02:21:38;;;;;;;72.65;34.50;;;;;;;7.91;100.00;100542.00;5066410;28;20034;-70
2021/10/31 02:24:06;;;;;;;73.32;34.85;;;;;;;7.91;100.00;100544.63;5064891;28;20029;-69
2021/10/31 02:26:35;;;;;;;80.55;35.38;;;;;;;7.88;100.00;100554.22;5065979;28;20063;-69
2021/10/31 02:29:01;;;;;;;82.57;36.60;;;;;;;7.89;100.00;100545.47;5064925;28;20028;-69
2021/10/31 02:31:28;;;;;;;76.75;35.55;;;;;;;7.86;100.00;100554.22;5064912;28;20053;-69
2021/10/31 02:33:54;;;;;;;78.28;36.25;;;;;;;7.85;100.00;100545.47;5065107;28;20033;-69
2021/10/31 02:36:19;;;;;;;83.00;37.65;;;;;;;7.89;100.00;100554.25;5063939;28;20071;-70
2021/10/31 02:38:45;;;;;;;82.18;38.67;;;;;;;7.91;100.00;100542.00;5066853;28;20459;-69
2021/10/31 02:41:11;;;;;;;78.00;38.00;;;;;;;7.92;100.00;100549.03;5063219;28;20105;-70
2021/10/31 02:43:37;;;;;;;83.90;38.03;;;;;;;7.92;100.00;100541.16;5066001;28;20055;-70
2021/10/31 02:46:03;;;;;;;84.18;37.83;;;;;;;7.95;100.00;100535.91;5064760;28;20021;-69
2021/10/31 02:48:30;;;;;;;82.10;38.53;;;;;;;7.96;100.00;100542.06;5063573;28;21980;-69
2021/10/31 02:51:01;;;;;;;85.22;38.28;;;;;;;7.92;100.00;100546.41;5066928;28;20029;-71
2021/10/31 02:53:50;;;;;;;82.03;38.03;;;;;;;7.89;100.00;100540.22;5063147;28;20029;-69
2021/10/31 02:56:27;;;;;;;86.07;37.85;;;;;;;7.90;100.00;100534.09;5065680;28;20055;-68
2021/10/31 02:59:20;;;;;;;90.20;38.78;;;;;;;7.90;100.00;100539.38;5064728;28;20082;-69
2021/10/31 03:01:47;;;;;;;94.80;40.28;;;;;;;7.88;100.00;100536.72;5064462;28;20036;-70
2021/10/31 03:04:14;;;;;;;92.88;39.30;;;;;;;7.87;100.00;100531.44;5064023;28;20016;-65
2021/10/31 03:06:41;;;;;;;87.95;40.00;;;;;;;7.89;100.00;100529.69;5064983;28;20357;-66
2021/10/31 03:09:06;;;;;;;92.00;39.58;;;;;;;7.87;100.00;100532.31;5064551;28;20033;-66
2021/10/31 03:11:32;;;;;;;95.40;40.70;;;;;;;7.83;100.00;100531.41;5063452;28;20021;-66
2021/10/31 03:13:57;;;;;;;96.05;40.85;;;;;;;7.82;100.00;100521.75;5066177;28;20028;-65
2021/10/31 03:16:22;;;;;;;95.20;41.03;;;;;;;7.84;100.00;100520.00;5062803;28;20047;-66
2021/10/31 03:18:48;;;;;;;96.10;40.60;;;;;;;7.79;100.00;100524.34;5065722;28;20045;-66
2021/10/31 03:21:13;;;;;;;101.80;41.05;;;;;;;7.78;100.00;100522.56;5063836;28;20021;-65
2021/10/31 03:23:39;;;;;;;102.95;41.53;;;;;;;7.77;100.00;100525.19;5064479;28;20369;-64
2021/10/31 03:26:04;;;;;;;102.75;41.58;;;;;;;7.81;100.00;100521.72;5065258;28;20059;-65
2021/10/31 03:28:30;;;;;;;100.18;41.17;;;;;;;7.81;100.00;100521.72;5063045;28;20033;-65
2021/10/31 03:30:56;;;;;;;101.00;40.72;;;;;;;7.78;100.00;100519.06;5065754;28;20051;-65
2021/10/31 03:33:21;;;;;;;106.68;40.95;;;;;;;7.79;100.00;100519.09;5062589;28;20471;-65
2021/10/31 03:35:46;;;;;;;108.85;42.28;;;;;;;7.79;100.00;100519.09;5065101;28;20498;-66
2021/10/31 03:38:12;;;;;;;99.40;40.05;;;;;;;7.79;100.00;100520.81;5063729;28;20299;-65
2021/10/31 03:40:37;;;;;;;108.38;41.33;;;;;;;7.83;100.00;100527.88;5063881;28;20460;-66
2021/10/31 03:43:03;;;;;;;102.38;40.20;;;;;;;7.83;100.00;100517.34;5064720;28;20025;-64
2021/10/31 03:45:28;;;;;;;101.28;40.40;;;;;;;7.80;100.00;100514.69;5062442;28;20357;-65
2021/10/31 03:47:54;;;;;;;104.43;38.85;;;;;;;7.81;100.00;100519.09;5065385;28;20474;-65
2021/10/31 03:50:23;;;;;;;105.53;39.83;;;;;;;7.81;100.00;100511.19;5062118;28;20025;-66
2021/10/31 03:52:50;;;;;;;104.78;39.45;;;;;;;7.83;100.00;100510.34;5061117;28;20017;-65
2021/10/31 03:55:19;;;;;;;96.43;39.08;;;;;;;7.82;100.00;100519.09;5061991;28;20059;-65
2021/10/31 03:57:44;;;;;;;97.97;37.63;;;;;;;7.82;100.00;100510.31;5065110;28;20090;-67
2021/10/31 04:00:12;;;;;;;99.90;37.58;;;;;;;7.86;100.00;100509.47;5062543;28;20148;-64
2021/10/31 04:02:38;;;;;;;95.60;38.40;;;;;;;7.85;100.00;100505.97;5064181;28;20025;-65
2021/10/31 04:05:05;;;;;;;96.40;38.85;;;;;;;7.87;100.00;100506.00;5063358;28;20024;-69
2021/10/31 04:07:30;;;;;;;96.68;39.70;;;;;;;7.88;100.00;100497.25;5062882;28;20044;-69
2021/10/31 04:09:56;;;;;;;98.15;40.17;;;;;;;7.88;100.00;100493.69;5064358;28;20078;-69
2021/10/31 04:12:22;;;;;;;94.07;38.55;;;;;;;7.88;100.00;100499.88;5061891;28;20112;-70
2021/10/31 04:14:47;;;;;;;90.80;37.22;;;;;;;7.89;100.00;100490.22;5065064;28;20020;-68
2021/10/31 04:17:12;;;;;;;90.25;37.13;;;;;;;7.89;100.00;100491.09;5062149;28;20017;-70
2021/10/31 04:19:38;;;;;;;91.88;37.15;;;;;;;7.90;100.00;100495.50;5063610;28;20041;-70
2021/10/31 04:22:03;;;;;;;90.40;37.35;;;;;;;7.89;100.00;100496.34;5063374;28;20088;-69
2021/10/31 04:24:29;;;;;;;88.35;37.45;;;;;;;7.92;100.00;100493.78;5062440;28;20033;-70
2021/10/31 04:26:54;;;;;;;89.50;36.35;;;;;;;7.92;100.00;100496.41;5064242;28;20052;-69
2021/10/31 04:29:19;;;;;;;90.10;36.47;;;;;;;7.92;100.00;100490.25;5061410;28;20498;-70
2021/10/31 04:31:45;;;;;;;90.22;37.10;;;;;;;7.89;100.00;100491.09;5064675;28;20495;-69
2021/10/31 04:34:10;;;;;;;81.30;34.83;;;;;;;7.82;100.00;100494.53;5062297;28;20395;-70
2021/10/31 04:36:36;;;;;;;79.57;35.85;;;;;;;7.83;100.00;100486.66;5063695;28;20048;-70
2021/10/31 04:39:02;;;;;;;85.10;35.85;;;;;;;7.85;100.00;100481.41;5063102;28;20028;-70
2021/10/31 04:41:30;;;;;;;87.55;37.45;;;;;;;7.79;100.00;100476.97;5061831;28;20036;-69
2021/10/31 04:43:56;;;;;;;93.57;38.08;;;;;;;7.77;100.00;100475.19;5064321;28;20465;-67
2021/10/31 04:46:21;;;;;;;90.93;38.67;;;;;;;7.78;100.00;100476.97;5061290;28;20163;-65
2021/10/31 04:48:47;;;;;;;95.07;39.45;;;;;;;7.74;100.00;100481.28;5064465;28;20486;-66
2021/10/31 04:51:12;;;;;;;89.22;37.50;;;;;;;7.77;100.00;100469.94;5061661;28;20025;-66
2021/10/31 04:53:38;;;;;;;88.70;38.35;;;;;;;7.77;100.00;100480.44;5063274;28;20021;-67
2021/10/31 04:56:04;;;;;;;88.22;37.28;;;;;;;7.76;100.00;100473.41;5062514;28;20046;-69
2021/10/31 04:58:29;;;;;;;89.55;36.22;;;;;;;7.75;100.00;100467.28;5062157;28;20376;-67
2021/10/31 05:00:54;;;;;;;88.10;37.22;;;;;;;7.75;100.00;100464.66;5063748;28;20024;-69
2021/10/31 05:03:20;;;;;;;89.90;36.45;;;;;;;7.75;100.00;100455.88;5061007;28;20021;-65
2021/10/31 05:05:45;;;;;;;81.50;35.92;;;;;;;7.81;100.00;100461.19;5064427;28;20459;-67
2021/10/31 05:08:10;;;;;;;90.40;37.55;;;;;;;7.81;100.00;100462.06;5061704;28;20045;-69
2021/10/31 05:10:36;;;;;;;87.32;36.35;;;;;;;7.79;100.00;100458.56;5062908;28;20108;-69
2021/10/31 05:13:01;;;;;;;88.03;36.58;;;;;;;7.82;100.00;100455.94;5061414;28;20120;-66
2021/10/31 05:15:26;;;;;;;84.47;36.05;;;;;;;7.86;100.00;100459.47;5061379;28;20024;-65
2021/10/31 05:17:53;;;;;;;89.18;36.97;;;;;;;7.84;100.00;100450.69;5064064;28;20036;-69
2021/10/31 05:20:19;;;;;;;89.72;37.40;;;;;;;7.84;100.00;100445.44;5060778;28;20104;-65
2021/10/31 05:22:44;;;;;;;87.72;36.08;;;;;;;7.88;100.00;100451.59;5063727;28;20116;-65
2021/10/31 05:25:10;;;;;;;93.35;36.33;;;;;;;7.87;100.00;100453.34;5061759;28;20080;-66
2021/10/31 05:27:36;;;;;;;87.13;35.33;;;;;;;7.89;100.00;100454.25;5062319;28;20029;-67
2021/10/31 05:30:07;;;;;;;82.50;36.08;;;;;;;7.90;100.00;100449.88;5062873;28;20025;-68
2021/10/31 05:32:35;;;;;;;85.20;34.75;;;;;;;7.92;100.00;100437.59;5062247;28;20033;-66
2021/10/31 05:35:00;;;;;;;77.45;34.15;;;;;;;7.96;100.00;100442.91;5062681;28;20463;-69
2021/10/31 05:37:45;;;;;;;80.20;35.25;;;;;;;7.98;100.00;100451.72;5061074;28;20108;-68
2021/10/31 05:40:14;;;;;;;74.82;33.70;;;;;;;8.01;100.00;100442.97;5061453;28;20029;-69
2021/10/31 05:42:41;;;;;;;78.85;34.50;;;;;;;8.02;100.00;100435.06;5063120;28;20025;-65
2021/10/31 05:45:08;;;;;;;75.50;32.67;;;;;;;8.01;100.00;100429.81;5061888;28;20056;-68
2021/10/31 05:47:36;;;;;;;75.93;33.20;;;;;;;7.98;100.00;100428.00;5062269;28;20040;-66
2021/10/31 05:50:03;;;;;;;70.88;32.83;;;;;;;7.98;100.00;100435.91;5062524;28;20468;-68
2021/10/31 05:52:29;;;;;;;74.95;32.95;;;;;;;7.95;100.00;100425.38;5061631;28;20071;-67
2021/10/31 05:54:54;;;;;;;76.18;33.53;;;;;;;7.94;100.00;100428.84;5063445;28;20029;-69
2021/10/31 05:57:19;;;;;;;74.70;32.85;;;;;;;7.94;100.00;100435.88;5060684;28;20464;-68
2021/10/31 05:59:45;;;;;;;71.13;32.80;;;;;;;7.95;100.00;100429.72;5063457;28;20032;-67
2021/10/31 06:02:10;;;;;;;72.53;32.50;;;;;;;7.92;100.00;100422.72;5061093;28;20029;-69
2021/10/31 06:04:35;;;;;;;72.90;33.00;;;;;;;7.91;100.00;100423.56;5062312;28;20025;-68
2021/10/31 06:07:01;;;;;;;71.47;32.88;;;;;;;7.91;100.00;100412.16;5062581;28;20035;-66
2021/10/31 06:09:26;;;;;;;71.70;31.88;;;;;;;7.91;100.00;100414.81;5060583;28;20025;-67
2021/10/31 06:11:52;;;;;;;80.82;34.10;;;;;;;7.87;100.00;100411.25;5063747;28;20155;-69
2021/10/31 06:14:17;;;;;;;73.40;33.58;;;;;;;7.88;100.00;100409.47;5060517;28;20021;-70
2021/10/31 06:16:42;;;;;;;72.10;33.90;;;;;;;7.85;100.00;100397.22;5065606;28;20475;-69
2021/10/31 06:19:09;;;;;;;76.80;34.45;;;;;;;7.87;100.00;100399.84;5065288;28;20129;-70
2021/10/31 06:21:34;;;;;;;74.05;34.08;;;;;;;7.86;100.00;100396.31;5065511;28;20021;-70
2021/10/31 06:24:00;;;;;;;74.75;34.50;;;;;;;7.85;100.00;100392.81;5066269;28;20027;-70
2021/10/31 06:26:25;;;;;;;76.88;35.85;;;;;;;7.84;100.00;100383.16;5063885;28;20021;-69
2021/10/31 06:28:50;;;;;;;74.18;34.20;;;;;;;7.85;100.00;100374.38;5066983;28;20112;-70
2021/10/31 06:31:16;;;;;;;76.85;35.03;;;;;;;7.81;100.00;100387.53;5063917;28;20064;-70
2021/10/31 06:33:42;;;;;;;75.20;34.47;;;;;;;7.78;100.00;100371.72;5066402;28;20116;-69
2021/10/31 06:36:07;;;;;;;70.43;33.30;;;;;;;7.75;100.00;100380.44;5064664;28;20025;-70
2021/10/31 06:38:33;;;;;;;75.22;34.47;;;;;;;7.72;100.00;100374.25;5065147;28;20031;-70
2021/10/31 06:40:58;;;;;;;76.97;33.97;;;;;;;7.74;100.00;100377.81;5065784;28;20026;-70
2021/10/31 06:43:24;;;;;;;72.53;33.50;;;;;;;7.73;100.00;100369.00;5063448;28;20063;-70
2021/10/31 06:45:49;;;;;;;78.82;34.70;;;;;;;7.70;100.00;100365.50;5067247;28;20024;-70
2021/10/31 06:48:14;;;;;;;77.60;34.65;;;;;;;7.69;100.00;100362.00;5063257;28;20039;-71
2021/10/31 06:50:40;;;;;;;75.75;34.60;;;;;;;7.70;100.00;100365.50;5063269;28;20506;-70
2021/10/31 06:53:06;;;;;;;76.70;33.58;;;;;;;7.74;100.00;100364.66;5063519;28;20388;-71
2021/10/31 06:55:32;;;;;;;76.45;35.65;;;;;;;7.79;100.00;100362.91;5066637;28;20086;-70
2021/10/31 06:57:58;;;;;;;79.10;34.95;;;;;;;7.76;100.00;100348.00;5063027;28;20028;-70
2021/10/31 07:00:24;;;;;;;79.90;34.55;;;;;;;7.78;100.00;100350.66;5064298;28;20029;-70
2021/10/31 07:02:49;;;;;;;80.95;34.42;;;;;;;7.81;100.00;100348.03;5061938;28;20028;-70
2021/10/31 07:05:15;;;;;;;74.80;34.00;;;;;;;7.85;100.00;100341.94;5066835;28;20025;-69
2021/10/31 07:07:40;;;;;;;76.22;34.90;;;;;;;7.83;100.00;100328.78;5064669;28;20489;-71
2021/10/31 07:10:06;;;;;;;79.95;35.55;;;;;;;7.89;100.00;100348.97;5072776;28;20074;-66
2021/10/31 07:12:31;;;;;;;75.82;35.67;;;;;;;7.92;100.00;100343.75;5067129;28;20063;-70
2021/10/31 07:14:57;;;;;;;82.03;36.05;;;;;;;7.94;100.00;100347.25;5067655;28;20032;-70
2021/10/31 07:17:22;;;;;;;73.65;35.15;;;;;;;7.98;100.00;100343.78;5071066;28;20029;-70
2021/10/31 07:19:47;;;;;;;75.60;34.22;;;;;;;7.99;100.00;100345.56;5071172;28;20057;-69
2021/10/31 07:22:13;;;;;;;79.47;35.75;;;;;;;8.05;100.00;100338.56;5073273;28;20043;-70
2021/10/31 07:24:40;;;;;;;75.15;35.25;;;;;;;8.08;100.00;100330.69;5072947;28;20486;-70
2021/10/31 07:27:05;;;;;;;73.65;35.60;;;;;;;8.13;100.00;100326.34;5070726;28;20475;-72
2021/10/31 07:29:31;;;;;;;72.63;35.42;;;;;;;8.13;100.00;100329.84;5067733;28;20097;-69
2021/10/31 07:31:56;;;;;;;70.85;35.83;;;;;;;8.16;100.00;100323.72;5073159;28;20031;-69
2021/10/31 07:34:25;;;;;;;67.20;33.97;;;;;;;8.21;100.00;100319.34;5073456;28;20063;-69
2021/10/31 07:36:51;;;;;;;67.88;33.38;;;;;;;8.25;100.00;100329.03;5072210;28;20028;-68
2021/10/31 07:39:17;;;;;;;66.78;34.35;;;;;;;8.29;100.00;100327.31;5064441;28;20459;-71
2021/10/31 07:41:42;;;;;;;64.05;33.03;;;;;;;8.32;100.00;100333.44;5073077;28;20063;-70
2021/10/31 07:44:08;;;;;;;63.05;33.35;;;;;;;8.36;100.00;100326.47;5072317;28;20028;-72
2021/10/31 07:46:34;;;;;;;60.35;32.38;;;;;;;8.41;100.00;100331.75;5068945;28;20024;-67
2021/10/31 07:48:59;;;;;;;57.60;31.52;;;;;;;8.44;100.00;100321.22;5070364;28;20497;-70
2021/10/31 07:51:25;;;;;;;54.42;30.23;;;;;;;8.49;100.00;100330.03;5072663;28;20028;-74
2021/10/31 07:53:51;;;;;;;52.72;30.85;;;;;;;8.54;100.00;100338.88;5072414;28;20078;-69
2021/10/31 07:56:18;;;;;;;51.33;28.98;;;;;;;8.57;100.00;100333.59;5072215;28;20108;-71
2021/10/31 07:58:45;;;;;;;49.92;28.50;;;;;;;8.61;100.00;100332.75;5071816;28;20028;-70
2021/10/31 08:01:11;;;;;;;47.90;27.25;;;;;;;8.68;100.00;100329.28;5071822;28;20021;-71
2021/10/31 08:03:37;;;;;;;47.55;26.77;;;;;;;8.74;100.00;100336.31;5071448;28;20025;-71
2021/10/31 08:06:03;;;;;;;42.42;24.52;;;;;;;8.78;100.00;100324.94;5071313;28;20033;-69
2021/10/31 08:08:28;;;;;;;41.65;23.33;;;;;;;8.84;100.00;100324.03;5070735;28;20538;-72
2021/10/31 08:10:54;;;;;;;39.97;22.65;;;;;;;8.87;100.00;100327.56;5070026;28;20094;-71
2021/10/31 08:13:27;;;;;;;36.53;21.30;;;;;;;8.94;100.00;100332.84;5071176;28;20099;-72
2021/10/31 08:15:54;;;;;;;37.88;20.88;;;;;;;8.98;100.00;100338.13;5071187;28;20082;-70
2021/10/31 08:18:20;;;;;;;35.25;19.50;;;;;;;9.02;100.00;100326.72;5070670;28;20135;-71
2021/10/31 08:20:46;;;;;;;32.70;17.70;;;;;;;9.12;100.00;100326.78;5070782;28;20123;-72
2021/10/31 08:23:14;;;;;;;31.58;16.55;;;;;;;9.19;100.00;100320.63;5071059;28;20486;-68
2021/10/31 08:25:40;;;;;;;30.95;16.05;;;;;;;9.24;100.00;100319.75;5071174;28;20028;-65
2021/10/31 08:28:08;;;;;;;29.35;15.20;;;;;;;9.27;100.00;100304.81;5060841;28;20386;-66
2021/10/31 08:30:34;;;;;;;28.40;14.93;;;;;;;9.32;100.00;100280.19;5061105;28;20028;-65
2021/10/31 08:33:06;;;;;;;26.58;14.27;;;;;;;9.37;100.00;100278.44;5063988;28;20076;-64
2021/10/31 08:35:32;;;;;;;;;;;;;;;9.41;100.00;100284.59;5061545;28;20052;-65
2021/10/31 08:37:57;;;;;;;28.55;15.07;;;;;;;9.54;100.00;100270.53;5063039;28;19974;-65
2021/10/31 08:40:23;;;;;;;27.08;14.50;;;;;;;9.58;100.00;100260.81;5062392;28;20036;-66
2021/10/31 08:42:49;;;;;;;25.63;12.45;;;;;;;9.66;100.00;100253.78;5062321;28;20023;-65
2021/10/31 08:45:14;;;;;;;26.75;13.73;;;;;;;9.66;100.00;100260.84;5063627;28;20375;-65
2021/10/31 08:47:40;;;;;;;25.05;12.50;;;;;;;9.75;100.00;100263.47;5061626;28;20039;-65
2021/10/31 08:50:06;;;;;;;25.75;13.00;;;;;;;9.85;100.00;100256.41;5064460;28;20036;-67
2021/10/31 08:52:32;;;;;;;24.85;12.20;;;;;;;9.91;100.00;100253.75;5061088;28;20021;-66
2021/10/31 08:54:57;;;;;;;24.23;11.82;;;;;;;10.02;100.00;100249.34;5063940;28;20071;-66
2021/10/31 08:57:23;;;;;;;26.23;12.13;;;;;;;10.12;100.00;100251.06;5062150;28;20017;-65
2021/10/31 08:59:48;;;;;;;23.65;11.30;;;;;;;10.26;100.00;100253.63;5062837;28;20029;-66
2021/10/31 09:02:14;;;;;;;25.58;11.50;;;;;;;10.34;100.00;100247.47;5063672;28;20059;-66
2021/10/31 09:04:40;;;;;;;23.70;10.45;;;;;;;10.50;100.00;100245.66;5061144;28;20532;-67
2021/10/31 09:07:14;;;;;;;24.13;10.63;;;;;;;10.66;100.00;100239.41;5064486;28;20032;-66
2021/10/31 09:09:39;;;;;;;23.20;10.38;;;;;;;10.94;100.00;100226.03;5061097;28;20033;-66
2021/10/31 09:12:05;;;;;;;22.58;9.88;;;;;;;11.08;100.00;100228.53;5064308;28;20050;-68
2021/10/31 09:14:30;;;;;;;22.58;9.20;;;;;;;11.15;100.00;100214.38;5060981;28;20380;-66
2021/10/31 09:16:56;;;;;;;21.60;8.70;;;;;;;11.20;100.00;100211.69;5063715;28;20028;-65
2021/10/31 09:19:21;;;;;;;22.35;8.57;;;;;;;11.23;100.00;100207.28;5062103;28;20041;-65
2021/10/31 09:21:46;;;;;;;22.00;8.55;;;;;;;11.20;100.00;100199.38;5062225;28;20017;-66
2021/10/31 09:24:12;;;;;;;21.75;8.80;;;;;;;11.31;100.00;100193.97;5063452;28;20021;-65
2021/10/31 09:26:37;;;;;;;21.77;8.23;;;;;;;11.38;100.00;100185.09;5060895;28;20017;-66
2021/10/31 09:29:03;;;;;;;21.92;8.48;;;;;;;11.36;100.00;100193.91;5064072;28;20352;-66
2021/10/31 09:31:29;;;;;;;21.23;8.32;;;;;;;11.42;100.00;100186.81;5061325;28;20040;-65
2021/10/31 09:33:55;;;;;;;21.33;8.77;;;;;;;11.49;100.00;100188.50;5062898;28;20460;-66
2021/10/31 09:36:21;;;;;;;19.85;7.97;;;;;;;11.62;100.00;100180.44;5062421;28;20029;-65
2021/10/31 09:38:47;;;;;;;20.02;7.50;;;;;;;11.66;100.00;100177.75;5061753;28;20034;-65
2021/10/31 09:41:14;;;;;;;21.13;7.55;;;;;;;11.81;100.00;100183.75;5063446;28;20025;-64
2021/10/31 09:43:51;;;;;;;21.42;7.40;;;;;;;12.19;100.00;100175.41;5060880;28;20353;-63
2021/10/31 09:46:18;;;;;;;19.95;7.10;;;;;;;12.36;100.00;100180.47;5062859;28;20473;-65
2021/10/31 09:48:43;;;;;;;21.13;7.70;;;;;;;12.65;100.00;100183.59;5061360;28;20025;-64
2021/10/31 09:51:09;;;;;;;20.52;6.80;;;;;;;12.93;98.31;100176.13;5064536;28;20486;-70
2021/10/31 09:53:34;;;;;;;18.63;6.40;;;;;;;13.11;92.57;100164.31;5064432;28;20108;-70
2021/10/31 09:56:00;;;;;;;19.42;6.50;;;;;;;13.35;93.41;100143.59;5066148;28;20025;-70
2021/10/31 09:58:34;;;;;;;19.38;6.00;;;;;;;13.36;92.05;100155.97;5065803;28;20039;-70
2021/10/31 10:01:06;;;;;;;18.50;6.00;;;;;;;13.49;92.33;100159.28;5066825;28;20028;-71
2021/10/31 10:03:35;;;;;;;18.42;6.18;;;;;;;13.73;89.60;100148.19;5064633;28;20028;-70
2021/10/31 10:06:19;;;;;;;18.80;6.20;;;;;;;14.35;87.09;100148.69;5066154;28;20021;-70
2021/10/31 10:09:13;;;;;;;19.17;6.15;;;;;;;14.71;88.90;100133.69;5064082;28;20518;-70
2021/10/31 10:11:43;;;;;;;20.58;6.22;;;;;;;14.93;80.49;100139.34;5021504;28;20052;-71
2021/10/31 10:14:19;;;;;;;19.10;5.80;;;;;;;15.08;80.87;100124.78;5010009;28;20524;-70
2021/10/31 10:16:45;;;;;;;19.05;5.97;;;;;;;15.21;80.50;100114.69;5022455;28;20388;-70
2021/10/31 10:19:24;;;;;;;18.30;5.90;;;;;;;16.23;77.34;100122.50;5025107;28;20135;-71
2021/10/31 10:22:00;;;;;;;18.13;5.82;;;;;;;17.01;70.50;100116.50;5025171;28;20038;-71
2021/10/31 10:24:29;;;;;;;16.80;5.32;;;;;;;17.53;67.80;100103.13;5023195;28;20029;-71
2021/10/31 10:27:00;;;;;;;19.55;5.88;;;;;;;17.37;68.01;100104.59;5023491;28;20030;-67
2021/10/31 10:29:29;;;;;;;16.92;5.00;;;;;;;17.31;66.75;100112.81;5020299;28;20061;-70
2021/10/31 10:32:01;;;;;;;17.13;4.93;;;;;;;17.13;70.74;100093.84;5022982;28;20451;-64
2021/10/31 10:34:56;;;;;;;17.27;4.93;;;;;;;17.08;69.77;100083.31;5022283;28;20136;-64
2021/10/31 10:37:23;;;;;;;16.35;4.65;;;;;;;16.94;69.23;100066.91;5022228;28;20065;-65
2021/10/31 10:39:59;;;;;;;16.40;4.72;;;;;;;16.68;69.47;100063.28;5024172;28;20104;-65
2021/10/31 10:42:29;;;;;;;16.42;4.50;;;;;;;16.34;70.30;100079.53;5023081;28;20041;-64
2021/10/31 10:44:57;;;;;;;12.65;3.88;;;;;;;15.76;72.02;100076.81;5023192;28;20026;-64
2021/10/31 10:47:24;;;;;;;16.05;4.43;;;;;;;15.26;74.79;100059.56;5031855;28;20083;-66
2021/10/31 10:49:51;;;;;;;14.27;4.20;;;;;;;15.07;76.36;100052.97;5066155;28;20025;-65
2021/10/31 10:52:30;;;;;;;14.02;4.10;;;;;;;15.51;75.92;100056.19;5063695;28;20021;-67
2021/10/31 10:55:00;;;;;;;14.07;4.10;;;;;;;16.60;72.67;100025.34;5062088;28;20033;-62
2021/10/31 10:57:29;;;;;;;13.90;3.70;;;;;;;17.38;66.71;100013.69;5064205;28;20548;-64
2021/10/31 11:00:00;;;;;;;12.60;3.70;;;;;;;17.25;66.24;100023.09;5065284;28;20058;-64
2021/10/31 11:02:27;;;;;;;12.50;3.70;;;;;;;17.15;68.26;100021.69;5066001;28;20029;-63
2021/10/31 11:04:56;;;;;;;13.15;3.72;;;;;;;16.43;71.03;100017.88;5066568;28;20028;-64
2021/10/31 11:07:29;;;;;;;13.38;3.72;;;;;;;15.76;73.53;100020.84;5064902;28;20021;-64
2021/10/31 11:09:54;;;;;;;14.23;3.95;;;;;;;15.48;75.03;99995.03;5065593;28;20024;-64
2021/10/31 11:12:30;;;;;;;13.75;3.70;;;;;;;15.39;75.23;99992.63;5063963;28;20025;-64
2021/10/31 11:14:59;;;;;;;13.00;3.50;;;;;;;15.26;74.85;99982.34;5063131;28;20486;-64